Time;durP1;ratioP1;P1;durP2;ratioP2;P2;SDS_P1;SDS_P2;PMS_P1;PMS_P2;Temp;Humidity;BMP_temperature;BMP_pressure;BME280_temperature;BME280_humidity;BME280_pressure;Samples;Min_cycle;Max_cycle;Signal;HPM_P1;HPM_P2
2022/10/10 00:00:37;;;;;;;29.00;4.70;;;;;;;11.44;100.00;98096.97;5036402;28;20090;-56
2022/10/10 00:03:03;;;;;;;31.73;4.70;;;;;;;11.55;100.00;98084.28;5034856;28;20025;-55
2022/10/10 00:05:28;;;;;;;35.42;5.38;;;;;;;11.47;100.00;98075.91;5034643;28;20097;-56
2022/10/10 00:07:53;;;;;;;28.42;4.55;;;;;;;11.61;100.00;98073.56;5037494;28;20025;-54
2022/10/10 00:10:19;;;;;;;30.67;4.75;;;;;;;11.45;100.00;98080.34;5033584;28;20029;-56
2022/10/10 00:12:45;;;;;;;27.25;4.25;;;;;;;11.44;100.00;98071.69;5033197;28;20764;-56
2022/10/10 00:15:12;;;;;;;28.85;4.70;;;;;;;11.54;100.00;98074.72;5037016;28;20021;-55
2022/10/10 00:17:38;;;;;;;38.15;5.63;;;;;;;11.34;100.00;98076.47;5034712;28;20018;-57
2022/10/10 00:20:04;;;;;;;35.78;5.25;;;;;;;11.28;100.00;98078.47;5036336;28;20025;-55
2022/10/10 00:22:29;;;;;;;33.65;5.30;;;;;;;11.34;100.00;98075.59;5033942;28;20056;-57
2022/10/10 00:24:55;;;;;;;31.10;4.85;;;;;;;11.13;100.00;98072.16;5035454;28;20670;-54
2022/10/10 00:27:20;;;;;;;29.52;4.78;;;;;;;11.37;100.00;98070.25;5034837;28;21022;-56
2022/10/10 00:29:45;;;;;;;44.30;5.63;;;;;;;11.09;100.00;98067.97;5029921;28;20118;-54
2022/10/10 00:32:11;;;;;;;29.58;4.60;;;;;;;11.27;100.00;98068.97;5035699;28;20733;-57
2022/10/10 00:34:36;;;;;;;38.33;5.53;;;;;;;10.93;100.00;98063.38;5036016;28;20505;-55
2022/10/10 00:37:01;;;;;;;34.80;5.22;;;;;;;11.25;100.00;98061.19;5033660;28;20040;-55
2022/10/10 00:39:27;;;;;;;36.10;5.50;;;;;;;11.10;100.00;98062.69;5036013;28;20013;-54
2022/10/10 00:41:52;;;;;;;37.17;5.60;;;;;;;11.09;100.00;98060.13;5033975;28;20052;-56
2022/10/10 00:44:17;;;;;;;27.67;4.70;;;;;;;11.03;100.00;98057.78;5034636;28;20060;-56
2022/10/10 00:46:43;;;;;;;34.50;5.50;;;;;;;11.17;100.00;98055.44;5033293;28;20509;-55
2022/10/10 00:49:18;;;;;;;28.65;4.95;;;;;;;11.17;100.00;98060.66;5033778;28;20115;-55
2022/10/10 00:51:52;;;;;;;28.60;4.80;;;;;;;11.42;100.00;98051.78;5033814;28;20040;-56
2022/10/10 00:54:21;;;;;;;28.83;4.55;;;;;;;10.90;100.00;98050.47;5033151;28;20569;-55
2022/10/10 00:56:56;;;;;;;30.17;4.93;;;;;;;11.12;100.00;98046.94;5032648;28;20041;-56
2022/10/10 00:59:23;;;;;;;30.30;4.85;;;;;;;11.03;100.00;98044.72;5034559;28;20399;-56
2022/10/10 01:01:48;;;;;;;34.00;5.20;;;;;;;10.94;100.00;98046.81;5031571;28;20131;-55
2022/10/10 01:04:37;;;;;;;31.05;4.72;;;;;;;11.10;100.00;98041.81;5035999;28;20108;-57
2022/10/10 01:07:06;;;;;;;34.55;5.10;;;;;;;10.92;100.00;98038.22;5031876;28;20038;-54
2022/10/10 01:09:34;;;;;;;30.70;4.80;;;;;;;10.92;100.00;98040.81;5034462;28;20095;-55
2022/10/10 01:12:33;;;;;;;28.90;4.65;;;;;;;11.21;100.00;98038.72;5032186;28;20034;-55
2022/10/10 01:15:29;;;;;;;28.63;4.57;;;;;;;10.92;100.00;98032.16;5031342;28;20029;-55
2022/10/10 01:18:19;;;;;;;25.48;4.60;;;;;;;10.96;100.00;98036.31;5032273;28;20137;-55
2022/10/10 01:20:53;;;;;;;31.73;4.82;;;;;;;10.72;100.00;98032.97;5032260;28;20080;-56
2022/10/10 01:23:51;;;;;;;29.10;4.80;;;;;;;11.07;100.00;98028.03;5033492;28;20086;-56
2022/10/10 01:26:37;;;;;;;32.33;4.90;;;;;;;10.93;100.00;98029.44;5011272;28;20075;-56
2022/10/10 01:29:15;;;;;;;34.00;5.15;;;;;;;11.14;100.00;98026.88;5036265;28;20135;-55
2022/10/10 01:31:45;;;;;;;35.08;5.28;;;;;;;10.85;100.00;98026.31;5031341;28;20045;-55
2022/10/10 01:34:23;;;;;;;33.60;5.20;;;;;;;10.86;100.00;98028.00;5032264;28;20024;-57
2022/10/10 01:37:07;;;;;;;29.17;4.70;;;;;;;11.02;100.00;98030.81;5035641;28;20044;-55
2022/10/10 01:39:42;;;;;;;49.30;6.28;;;;;;;10.95;100.00;98027.66;5034771;28;20059;-58
2022/10/10 01:42:33;;;;;;;35.45;5.05;;;;;;;11.01;100.00;98023.94;5032891;28;20053;-58
2022/10/10 01:44:59;;;;;;;30.67;4.85;;;;;;;10.91;100.00;98020.84;5035703;28;20021;-54
2022/10/10 01:47:24;;;;;;;32.72;5.28;;;;;;;10.91;100.00;98026.06;5033794;28;20041;-55
2022/10/10 01:49:53;;;;;;;32.75;4.90;;;;;;;10.91;100.00;98022.59;5032839;28;20031;-54
2022/10/10 01:52:34;;;;;;;29.42;4.63;;;;;;;11.09;100.00;98024.44;5032666;28;20025;-55
2022/10/10 01:55:12;;;;;;;23.85;4.43;;;;;;;11.09;100.00;98023.59;5034501;28;20024;-56
2022/10/10 01:57:55;;;;;;;39.15;5.68;;;;;;;11.06;100.00;98018.50;5034335;28;20084;-57
2022/10/10 02:00:20;;;;;;;28.98;4.80;;;;;;;10.58;100.00;98026.53;5030127;28;20029;-57
2022/10/10 02:03:04;;;;;;;31.42;4.95;;;;;;;10.77;100.00;98017.94;5033748;28;20402;-56
2022/10/10 02:05:43;;;;;;;26.70;4.53;;;;;;;10.81;100.00;98022.16;5033769;28;20120;-57
2022/10/10 02:08:31;;;;;;;31.05;4.88;;;;;;;10.60;100.00;98014.31;5030607;28;20056;-57
2022/10/10 02:11:03;;;;;;;32.10;4.78;;;;;;;10.41;100.00;98011.56;5030413;28;20036;-55
2022/10/10 02:13:37;;;;;;;28.55;4.80;;;;;;;10.81;100.00;98006.50;5032174;28;20554;-55
2022/10/10 02:16:07;;;;;;;27.60;4.72;;;;;;;10.45;100.00;98007.09;5033887;28;20033;-57
2022/10/10 02:18:34;;;;;;;25.65;4.50;;;;;;;10.65;100.00;97993.22;5032283;28;20632;-55
2022/10/10 02:21:03;;;;;;;26.98;4.47;;;;;;;10.83;100.00;97994.22;5030726;28;20701;-56
2022/10/10 02:23:29;;;;;;;31.67;4.95;;;;;;;10.86;100.00;97996.69;5032924;28;20883;-56
2022/10/10 02:25:55;;;;;;;36.22;5.20;;;;;;;10.35;100.00;97995.34;5032699;28;20253;-57
2022/10/10 02:28:46;;;;;;;27.95;4.82;;;;;;;10.66;100.00;97999.28;5031368;28;20522;-56
2022/10/10 02:31:18;;;;;;;32.72;5.05;;;;;;;10.87;100.00;97997.56;5030727;28;20055;-56
2022/10/10 02:33:50;;;;;;;27.73;4.53;;;;;;;10.73;100.00;97998.13;5032810;28;20017;-55
2022/10/10 02:36:20;;;;;;;36.63;5.28;;;;;;;10.85;100.00;98005.44;5032832;28;20597;-55
2022/10/10 02:38:46;;;;;;;32.10;4.72;;;;;;;10.89;100.00;97996.56;5031390;28;20064;-54
2022/10/10 02:41:16;;;;;;;45.15;5.85;;;;;;;10.74;100.00;97997.22;5029803;28;20148;-55
2022/10/10 02:43:41;;;;;;;32.20;4.88;;;;;;;10.34;100.00;97991.03;5034019;28;20032;-55
2022/10/10 02:46:11;;;;;;;37.60;5.05;;;;;;;10.36;100.00;97991.81;5032014;28;20041;-56
2022/10/10 02:48:36;;;;;;;29.58;4.82;;;;;;;10.45;100.00;97981.00;5033074;28;20676;-55
2022/10/10 02:51:02;;;;;;;33.88;5.03;;;;;;;10.55;100.00;97992.78;5030140;28;20888;-55
2022/10/10 02:53:28;;;;;;;27.52;4.47;;;;;;;11.07;100.00;97978.44;5034151;28;20409;-56
2022/10/10 02:55:53;;;;;;;31.45;4.90;;;;;;;10.96;100.00;97987.56;5031555;28;20041;-54
2022/10/10 02:58:18;;;;;;;33.70;5.18;;;;;;;11.13;100.00;97976.41;5032888;28;20119;-57
2022/10/10 03:00:44;;;;;;;29.25;4.53;;;;;;;10.98;100.00;97985.75;5031951;28;20465;-57
2022/10/10 03:03:09;;;;;;;28.35;4.72;;;;;;;10.50;100.00;97989.50;5031052;28;20118;-54
2022/10/10 03:05:34;;;;;;;31.25;4.97;;;;;;;10.27;100.00;97986.94;5031388;28;20038;-55
2022/10/10 03:08:00;;;;;;;26.92;4.45;;;;;;;9.81;100.00;97980.03;5032529;28;20022;-55
2022/10/10 03:10:25;;;;;;;39.13;5.85;;;;;;;9.65;100.00;97979.75;5029800;28;20025;-55
2022/10/10 03:12:51;;;;;;;27.50;4.30;;;;;;;10.47;100.00;97983.56;5031962;28;20036;-57
2022/10/10 03:15:16;;;;;;;27.17;4.63;;;;;;;10.54;100.00;97985.84;5031363;28;20032;-57
2022/10/10 03:17:41;;;;;;;32.60;5.38;;;;;;;10.30;100.00;97986.81;5032177;28;20160;-55
2022/10/10 03:20:08;;;;;;;35.65;5.50;;;;;;;10.34;100.00;97991.03;5031248;28;20025;-55
2022/10/10 03:22:33;;;;;;;38.00;5.55;;;;;;;9.68;100.00;97994.38;5032316;28;20144;-58
2022/10/10 03:24:58;;;;;;;31.85;4.93;;;;;;;9.45;100.00;97988.28;5033393;28;20032;-56
2022/10/10 03:27:24;;;;;;;29.90;4.55;;;;;;;9.35;100.00;97976.50;5030954;28;20067;-57
2022/10/10 03:29:49;;;;;;;32.28;5.15;;;;;;;9.42;100.00;97977.97;5029361;28;20017;-56
2022/10/10 03:32:14;;;;;;;36.35;5.18;;;;;;;9.45;100.00;97970.06;5031689;28;20029;-56
2022/10/10 03:34:40;;;;;;;37.50;5.50;;;;;;;9.40;100.00;97964.19;5032876;28;20061;-55
2022/10/10 03:37:05;;;;;;;31.52;4.93;;;;;;;10.12;100.00;97957.97;5032101;28;20033;-56
2022/10/10 03:39:31;;;;;;;48.13;6.22;;;;;;;10.23;100.00;97960.13;5032007;28;20028;-58
2022/10/10 03:41:56;;;;;;;33.10;4.93;;;;;;;10.66;100.00;97958.41;5030848;28;20033;-54
2022/10/10 03:44:22;;;;;;;29.23;5.03;;;;;;;10.32;100.00;97970.22;5030811;28;20021;-55
2022/10/10 03:46:47;;;;;;;32.70;5.18;;;;;;;9.72;100.00;97982.09;5036091;28;20796;-54
2022/10/10 03:49:12;;;;;;;32.03;5.05;;;;;;;9.53;100.00;97979.34;5034896;28;20696;-55
2022/10/10 03:51:38;;;;;;;27.45;5.10;;;;;;;9.51;100.00;97981.16;5033891;28;20068;-54
2022/10/10 03:54:03;;;;;;;35.45;5.38;;;;;;;9.30;100.00;97973.25;5036178;28;20025;-55
2022/10/10 03:56:29;;;;;;;35.35;5.13;;;;;;;9.13;100.00;97965.19;5034132;28;20038;-55
2022/10/10 03:58:56;;;;;;;32.80;5.18;;;;;;;9.27;100.00;97948.16;5037648;28;20214;-55
2022/10/10 04:01:22;;;;;;;24.33;4.35;;;;;;;10.25;100.00;97944.44;5035190;28;20087;-54
2022/10/10 04:03:47;;;;;;;35.95;5.22;;;;;;;9.86;100.00;97965.97;5034957;28;20723;-58
2022/10/10 04:06:13;;;;;;;41.67;5.80;;;;;;;9.11;100.00;97962.63;5033051;28;20037;-55
2022/10/10 04:08:38;;;;;;;32.72;5.47;;;;;;;9.48;100.00;97965.66;5036677;28;20036;-55
2022/10/10 04:11:04;;;;;;;50.17;6.57;;;;;;;9.66;100.00;97964.97;5034374;28;20491;-55
2022/10/10 04:13:29;;;;;;;35.47;5.18;;;;;;;9.77;100.00;97962.78;5033532;28;20021;-55
2022/10/10 04:15:55;;;;;;;30.75;5.07;;;;;;;9.49;100.00;97967.34;5033896;28;20040;-58
2022/10/10 04:18:23;;;;;;;33.35;5.40;;;;;;;9.64;100.00;97966.78;5035145;28;20029;-55
2022/10/10 04:20:49;;;;;;;27.35;4.82;;;;;;;9.41;100.00;97960.69;5036584;28;20021;-55
2022/10/10 04:23:14;;;;;;;39.05;5.90;;;;;;;9.35;100.00;97968.69;5034764;28;20028;-56
2022/10/10 04:25:40;;;;;;;37.30;5.32;;;;;;;9.76;100.00;97966.31;5032910;28;20037;-55
2022/10/10 04:28:06;;;;;;;33.67;5.03;;;;;;;10.16;100.00;97967.38;5035591;28;20399;-56
2022/10/10 04:30:33;;;;;;;27.77;4.22;;;;;;;10.45;100.00;97975.78;5033936;28;20067;-54
2022/10/10 04:32:59;;;;;;;27.00;4.57;;;;;;;10.53;100.00;97959.81;5036812;28;20051;-56
2022/10/10 04:35:24;;;;;;;37.90;5.70;;;;;;;9.76;100.00;97975.88;5033102;28;20112;-57
2022/10/10 04:37:50;;;;;;;30.48;5.00;;;;;;;9.77;100.00;97972.38;5034738;28;20025;-57
2022/10/10 04:40:15;;;;;;;42.03;5.80;;;;;;;9.47;100.00;97979.59;5032997;28;20033;-56
2022/10/10 04:42:40;;;;;;;36.10;5.25;;;;;;;9.07;100.00;97969.69;5035023;28;20031;-56
2022/10/10 04:45:06;;;;;;;34.63;5.50;;;;;;;8.94;100.00;97960.63;5034876;28;20070;-55
2022/10/10 04:47:32;;;;;;;46.42;6.15;;;;;;;8.91;100.00;97958.13;5034387;28;20538;-55
2022/10/10 04:49:57;;;;;;;27.05;4.75;;;;;;;9.07;100.00;97961.88;5035455;28;20036;-55
2022/10/10 04:52:22;;;;;;;38.33;5.50;;;;;;;9.27;100.00;97968.97;5033678;28;20561;-58
2022/10/10 04:54:48;;;;;;;35.80;5.72;;;;;;;9.09;100.00;97963.59;5031889;28;20028;-55
2022/10/10 04:57:13;;;;;;;25.02;4.55;;;;;;;9.17;100.00;97961.56;5033835;28;20033;-55
2022/10/10 04:59:39;;;;;;;58.08;6.65;;;;;;;9.87;100.00;97959.81;5033258;28;20120;-56
2022/10/10 05:02:04;;;;;;;43.22;5.53;;;;;;;9.72;100.00;97959.50;5035162;28;20072;-58
2022/10/10 05:04:29;;;;;;;32.50;5.40;;;;;;;9.67;100.00;97973.59;5031378;28;20241;-59
2022/10/10 05:06:55;;;;;;;37.08;5.97;;;;;;;9.48;100.00;97965.66;5033410;28;20041;-55
2022/10/10 05:09:20;;;;;;;30.10;5.32;;;;;;;9.69;100.00;97964.84;5034194;28;20032;-55
2022/10/10 05:11:45;;;;;;;41.63;6.70;;;;;;;9.30;100.00;97961.97;5032976;28;20052;-55
2022/10/10 05:14:10;;;;;;;36.50;5.85;;;;;;;9.44;100.00;97962.31;5034912;28;20095;-55
2022/10/10 05:16:36;;;;;;;37.08;5.95;;;;;;;9.32;100.00;97961.03;5033950;28;20036;-57
2022/10/10 05:19:01;;;;;;;32.92;5.22;;;;;;;9.73;100.00;97968.19;5034375;28;20037;-56
2022/10/10 05:21:27;;;;;;;33.03;4.97;;;;;;;10.20;100.00;97966.34;5033261;28;20037;-55
2022/10/10 05:23:53;;;;;;;36.88;5.90;;;;;;;9.45;100.00;97977.88;5033563;28;20029;-56
2022/10/10 05:26:19;;;;;;;32.40;5.50;;;;;;;9.47;100.00;97971.78;5033846;28;20052;-55
2022/10/10 05:28:45;;;;;;;35.67;6.43;;;;;;;9.22;100.00;97970.88;5030372;28;20014;-55
2022/10/10 05:31:11;;;;;;;54.42;7.45;;;;;;;9.18;100.00;97974.50;5033728;28;20033;-54
2022/10/10 05:33:36;;;;;;;31.55;5.68;;;;;;;8.91;100.00;97970.28;5034410;28;20037;-56
2022/10/10 05:36:03;;;;;;;46.03;6.43;;;;;;;9.13;100.00;97971.22;5032136;28;20141;-56
2022/10/10 05:38:29;;;;;;;35.85;6.35;;;;;;;8.83;100.00;97961.00;5031397;28;20071;-58
2022/10/10 05:40:55;;;;;;;44.72;7.15;;;;;;;8.83;100.00;97958.41;5033181;28;20032;-55
2022/10/10 05:43:20;;;;;;;35.42;5.22;;;;;;;9.94;100.00;97969.94;5034253;28;20111;-55
2022/10/10 05:45:45;;;;;;;40.13;5.88;;;;;;;9.65;100.00;97976.28;5032714;28;20041;-57
2022/10/10 05:48:11;;;;;;;35.45;5.85;;;;;;;9.69;100.00;97980.47;5033813;28;20037;-55
2022/10/10 05:50:39;;;;;;;34.45;5.40;;;;;;;9.35;100.00;97971.28;5032157;28;20037;-56
2022/10/10 05:53:05;;;;;;;40.60;5.95;;;;;;;9.18;100.00;97973.69;5034788;28;20107;-55
2022/10/10 05:55:31;;;;;;;28.77;5.00;;;;;;;9.95;100.00;97965.59;5032895;28;20829;-56
2022/10/10 05:57:56;;;;;;;25.52;4.47;;;;;;;9.70;100.00;97976.09;5032043;28;20040;-57
2022/10/10 06:00:22;;;;;;;29.33;5.32;;;;;;;9.92;100.00;97968.31;5030858;28;20033;-56
2022/10/10 06:02:47;;;;;;;27.65;5.18;;;;;;;10.28;100.00;97983.44;5032853;28;20691;-58
2022/10/10 06:05:13;;;;;;;36.58;6.18;;;;;;;10.06;100.00;97994.69;5031878;28;20032;-55
2022/10/10 06:07:38;;;;;;;35.10;6.05;;;;;;;9.81;100.00;97990.44;5032075;28;20028;-55
2022/10/10 06:10:04;;;;;;;42.92;10.32;;;;;;;9.97;100.00;97984.63;5031057;28;20025;-57
2022/10/10 06:12:29;;;;;;;89.13;19.27;;;;;;;11.07;100.00;97978.44;5031284;28;20025;-56
2022/10/10 06:14:55;;;;;;;109.68;24.77;;;;;;;11.10;100.00;97978.28;5031264;28;20085;-58
2022/10/10 06:17:20;;;;;;;74.50;15.93;;;;;;;11.29;100.00;97983.56;5030022;28;20132;-56
2022/10/10 06:19:45;;;;;;;51.90;14.18;;;;;;;10.77;100.00;97994.47;5032804;28;20073;-56
2022/10/10 06:22:11;;;;;;;48.63;13.07;;;;;;;10.51;100.00;98000.78;5030029;28;20042;-55
2022/10/10 06:24:36;;;;;;;47.67;13.85;;;;;;;9.81;100.00;98000.88;5030436;28;20029;-59
2022/10/10 06:27:02;;;;;;;41.45;7.85;;;;;;;9.56;100.00;97989.66;5032652;28;20057;-56
2022/10/10 06:29:27;;;;;;;53.15;9.30;;;;;;;9.37;100.00;97990.31;5033527;28;20128;-57
2022/10/10 06:31:52;;;;;;;38.13;7.55;;;;;;;9.91;100.00;97992.69;5031607;28;20107;-56
2022/10/10 06:34:18;;;;;;;40.47;7.05;;;;;;;9.65;100.00;97986.72;5032900;28;20039;-58
2022/10/10 06:36:43;;;;;;;36.97;6.10;;;;;;;9.69;100.00;97990.91;5029101;28;20041;-59
2022/10/10 06:39:09;;;;;;;31.65;6.15;;;;;;;10.36;100.00;97999.63;5034239;28;20025;-59
2022/10/10 06:41:34;;;;;;;42.67;6.88;;;;;;;9.66;100.00;97991.00;5030767;28;20459;-58
2022/10/10 06:44:00;;;;;;;51.85;7.35;;;;;;;10.63;100.00;97991.59;5031452;28;20020;-59
2022/10/10 06:46:25;;;;;;;39.42;6.38;;;;;;;10.74;100.00;98003.28;5033856;28;20037;-60
2022/10/10 06:48:51;;;;;;;34.00;6.15;;;;;;;10.53;100.00;98007.63;5032521;28;20857;-58
2022/10/10 06:51:17;;;;;;;35.13;6.40;;;;;;;10.44;100.00;98009.75;5046455;28;20037;-59
2022/10/10 06:53:43;;;;;;;38.05;6.90;;;;;;;10.85;100.00;98015.88;5034020;28;20044;-57
2022/10/10 06:56:19;;;;;;;33.47;6.15;;;;;;;10.65;100.00;98015.88;5031645;28;20044;-57
2022/10/10 06:58:46;;;;;;;40.88;6.82;;;;;;;11.07;100.00;98020.22;5031275;28;20064;-58
2022/10/10 07:01:11;;;;;;;40.97;7.03;;;;;;;11.27;100.00;98022.81;5031894;28;20037;-57
2022/10/10 07:03:36;;;;;;;24.40;5.47;;;;;;;10.94;100.00;98028.53;5034008;28;20028;-58
2022/10/10 07:06:02;;;;;;;35.45;6.32;;;;;;;11.27;100.00;98021.97;5033114;28;20029;-57
2022/10/10 07:08:28;;;;;;;39.30;7.07;;;;;;;11.41;100.00;98030.03;5032546;28;20036;-60
2022/10/10 07:10:53;;;;;;;39.13;6.70;;;;;;;12.12;100.00;98032.09;5032304;28;20037;-61
2022/10/10 07:13:20;;;;;;;35.58;6.25;;;;;;;13.97;100.00;98038.53;5029890;28;20058;-59
2022/10/10 07:15:46;;;;;;;30.48;5.75;;;;;;;15.36;100.00;98052.59;5031842;28;20071;-58
2022/10/10 07:18:11;;;;;;;29.60;5.95;;;;;;;16.66;100.00;98059.44;5032769;28;20148;-58
2022/10/10 07:20:38;;;;;;;30.52;5.93;;;;;;;18.08;100.00;98063.13;5035109;28;20454;-57
2022/10/10 07:23:04;;;;;;;27.70;5.57;;;;;;;19.52;100.00;98072.00;5033809;28;20040;-58
2022/10/10 07:25:30;;;;;;;29.23;5.95;;;;;;;20.18;100.00;98082.78;5037014;28;20059;-59
2022/10/10 07:27:55;;;;;;;35.13;5.75;;;;;;;19.49;100.00;98082.84;5036615;28;20021;-57
2022/10/10 07:30:22;;;;;;;26.38;5.68;;;;;;;19.41;100.00;98075.50;5034161;28;20596;-59
2022/10/10 07:32:47;;;;;;;25.92;5.68;;;;;;;19.93;100.00;98083.88;5035348;28;20079;-58
2022/10/10 07:35:12;;;;;;;34.63;6.30;;;;;;;19.63;96.62;98082.63;5035905;28;20029;-57
2022/10/10 07:37:38;;;;;;;23.70;5.25;;;;;;;19.29;100.00;98077.25;5034963;28;20535;-60
2022/10/10 07:40:05;;;;;;;23.65;5.55;;;;;;;18.16;100.00;98076.66;5033786;28;20518;-59
2022/10/10 07:42:30;;;;;;;23.75;5.20;;;;;;;17.19;100.00;98066.59;5034491;28;20045;-57
2022/10/10 07:44:55;;;;;;;24.50;5.53;;;;;;;17.53;100.00;98076.56;5038791;28;20036;-62
2022/10/10 07:47:21;;;;;;;27.25;6.20;;;;;;;17.33;100.00;98071.75;5035860;28;20033;-58
2022/10/10 07:49:46;;;;;;;27.30;5.88;;;;;;;17.15;100.00;98072.06;5035614;28;20038;-58
2022/10/10 07:52:12;;;;;;;25.98;5.90;;;;;;;17.49;100.00;98082.97;5035105;28;20064;-59
2022/10/10 07:54:37;;;;;;;27.88;6.15;;;;;;;18.39;100.00;98096.13;5035020;28;20390;-59
2022/10/10 07:57:02;;;;;;;27.50;5.53;;;;;;;17.75;100.00;98093.53;5036336;28;20041;-56
2022/10/10 07:59:28;;;;;;;35.70;6.53;;;;;;;16.18;100.00;98096.69;5035253;28;20127;-58
2022/10/10 08:01:53;;;;;;;24.50;5.07;;;;;;;15.99;100.00;98093.53;5035911;28;20041;-58
2022/10/10 08:04:20;;;;;;;22.48;5.30;;;;;;;17.13;100.00;98087.13;5034712;28;20033;-56
2022/10/10 08:06:45;;;;;;;25.13;5.35;;;;;;;15.86;100.00;98082.91;5033639;28;20040;-57
2022/10/10 08:09:11;;;;;;;25.25;5.55;;;;;;;17.00;100.00;98088.03;5034060;28;20029;-57
2022/10/10 08:11:36;;;;;;;30.55;5.88;;;;;;;17.76;100.00;98089.09;5034129;28;20045;-56
2022/10/10 08:14:02;;;;;;;25.33;5.30;;;;;;;18.49;100.00;98083.94;5035889;28;20666;-59
2022/10/10 08:16:27;;;;;;;23.15;4.93;;;;;;;16.90;100.00;98086.00;5035462;28;20042;-56
2022/10/10 08:18:52;;;;;;;25.40;5.55;;;;;;;17.89;100.00;98089.97;5036562;28;20035;-59
2022/10/10 08:21:18;;;;;;;25.23;5.53;;;;;;;17.98;100.00;98089.34;5033637;28;20498;-60
2022/10/10 08:23:44;;;;;;;32.28;5.82;;;;;;;18.62;100.00;98093.63;5037645;28;20565;-59
2022/10/10 08:26:12;;;;;;;19.20;4.88;;;;;;;19.71;100.00;98104.03;5035327;28;20037;-58
2022/10/10 08:28:38;;;;;;;27.95;5.78;;;;;;;17.85;100.00;98099.91;5034823;28;20368;-57
2022/10/10 08:31:09;;;;;;;25.55;6.05;;;;;;;19.29;100.00;98103.69;5030500;28;20029;-57
2022/10/10 08:33:35;;;;;;;25.92;5.55;;;;;;;18.02;100.00;98095.25;5036282;28;20486;-59
2022/10/10 08:36:08;;;;;;;30.88;6.43;;;;;;;18.11;100.00;98092.78;5033959;28;20063;-58
2022/10/10 08:38:34;;;;;;;24.25;5.82;;;;;;;17.58;100.00;98091.22;5033928;28;20028;-58
2022/10/10 08:41:06;;;;;;;33.85;6.13;;;;;;;18.38;100.00;98093.56;5033472;28;20061;-57
2022/10/10 08:43:34;;;;;;;;;;;;;;;19.69;100.00;98095.38;5035918;28;20037;-57
2022/10/10 08:46:20;;;;;;;27.80;6.75;;;;;;;19.65;100.00;98093.94;5033413;28;19967;-58
2022/10/10 08:48:49;;;;;;;17.50;4.90;;;;;;;22.94;82.92;98104.75;5035983;28;20029;-58
2022/10/10 08:51:25;;;;;;;26.50;6.60;;;;;;;21.37;87.61;98092.59;5033137;28;20139;-58
2022/10/10 08:53:56;;;;;;;22.42;5.80;;;;;;;21.33;100.00;98099.97;5033308;28;20021;-59
2022/10/10 08:56:27;;;;;;;22.13;6.03;;;;;;;21.78;95.81;98092.75;5033874;28;20107;-58
2022/10/10 08:58:59;;;;;;;22.40;5.63;;;;;;;20.58;92.61;98088.38;5033879;28;20022;-61
2022/10/10 09:01:33;;;;;;;23.67;5.78;;;;;;;19.62;100.00;98083.56;5033245;28;20052;-57
2022/10/10 09:04:01;;;;;;;22.95;5.80;;;;;;;20.55;100.00;98087.81;5035887;28;20025;-56
2022/10/10 09:07:05;;;;;;;24.70;6.50;;;;;;;18.63;100.00;98088.22;5031826;28;20718;-59
2022/10/10 09:09:42;;;;;;;30.48;7.03;;;;;;;21.05;100.00;98096.13;5033399;28;20506;-60
2022/10/10 09:12:10;;;;;;;24.80;5.80;;;;;;;20.26;100.00;98088.31;5032494;28;20119;-60
2022/10/10 09:14:48;;;;;;;17.33;4.97;;;;;;;19.91;100.00;98080.53;5035588;28;20052;-58
2022/10/10 09:17:25;;;;;;;22.92;5.30;;;;;;;23.85;82.56;98100.81;5032771;28;20166;-58
2022/10/10 09:20:09;;;;;;;19.20;5.68;;;;;;;23.25;75.48;98101.03;5033882;28;20499;-60
2022/10/10 09:22:48;;;;;;;19.23;5.20;;;;;;;21.34;88.05;98100.81;5029613;28;20045;-58
2022/10/10 09:25:20;;;;;;;23.83;5.25;;;;;;;23.24;83.43;98104.66;5031635;28;20079;-59
2022/10/10 09:27:59;;;;;;;17.20;5.05;;;;;;;21.69;93.77;98095.22;5033908;28;20048;-59
2022/10/10 09:30:28;;;;;;;22.38;5.70;;;;;;;21.24;91.26;98100.72;5032345;28;20029;-59
2022/10/10 09:33:17;;;;;;;20.65;5.47;;;;;;;20.80;95.91;98091.97;5031731;28;20018;-58
2022/10/10 09:35:43;;;;;;;18.40;4.95;;;;;;;23.86;91.24;98101.66;5034747;28;20061;-60
2022/10/10 09:38:33;;;;;;;15.10;4.82;;;;;;;22.60;77.43;98099.81;5035620;28;20124;-58
2022/10/10 09:41:21;;;;;;;21.48;4.95;;;;;;;21.07;95.23;98090.69;5031658;28;20032;-58
2022/10/10 09:43:47;;;;;;;25.25;5.88;;;;;;;21.21;92.44;98089.53;5033299;28;21017;-56
2022/10/10 09:46:12;;;;;;;16.38;4.80;;;;;;;20.04;100.00;98081.22;5032695;28;20624;-57
2022/10/10 09:48:40;;;;;;;19.05;5.40;;;;;;;19.09;100.00;98083.19;5030837;28;20036;-60
2022/10/10 09:51:12;;;;;;;23.48;5.80;;;;;;;20.12;100.00;98088.56;5031513;28;20029;-60
2022/10/10 09:53:38;;;;;;;18.83;5.43;;;;;;;18.98;100.00;98090.09;5033830;28;20032;-58
2022/10/10 09:56:04;;;;;;;16.10;4.43;;;;;;;20.99;100.00;98086.03;5034199;28;20036;-60
2022/10/10 09:58:40;;;;;;;18.13;5.05;;;;;;;20.69;100.00;98089.38;5030898;28;20017;-59
2022/10/10 10:01:31;;;;;;;25.25;5.40;;;;;;;22.97;97.05;98096.50;5032934;28;20037;-58
2022/10/10 10:04:08;;;;;;;52.50;7.43;;;;;;;24.35;76.07;98093.47;5033858;28;20042;-57
2022/10/10 10:06:34;;;;;;;23.50;5.22;;;;;;;24.18;79.16;98093.25;5033587;28;20650;-58
2022/10/10 10:09:01;;;;;;;21.80;5.45;;;;;;;24.78;71.35;98090.16;5033619;28;21047;-59
2022/10/10 10:11:32;;;;;;;18.10;4.90;;;;;;;22.69;76.66;98094.50;5032782;28;20146;-57
2022/10/10 10:14:01;;;;;;;24.42;5.65;;;;;;;20.59;100.00;98084.78;5034435;28;20037;-60
2022/10/10 10:16:44;;;;;;;20.60;5.15;;;;;;;21.15;100.00;98088.25;5033088;28;20523;-59
2022/10/10 10:19:30;;;;;;;21.00;5.00;;;;;;;19.29;100.00;98077.25;5033794;28;20490;-58
2022/10/10 10:21:56;;;;;;;22.63;5.90;;;;;;;19.67;100.00;98092.00;5031141;28;20470;-60
2022/10/10 10:24:28;;;;;;;19.33;5.38;;;;;;;19.81;100.00;98086.53;5032448;28;20737;-59
2022/10/10 10:26:53;;;;;;;22.83;5.60;;;;;;;20.47;100.00;98085.75;5032320;28;20037;-57
2022/10/10 10:29:30;;;;;;;21.98;5.40;;;;;;;21.09;100.00;98096.72;5031807;28;20029;-57
2022/10/10 10:32:17;;;;;;;17.67;4.85;;;;;;;23.63;88.23;98103.78;5032181;28;20043;-60
2022/10/10 10:34:45;;;;;;;19.63;5.00;;;;;;;22.44;92.67;98102.97;5033971;28;20405;-59
2022/10/10 10:37:20;;;;;;;24.45;5.50;;;;;;;23.31;88.71;98101.47;5032263;28;20047;-61
2022/10/10 10:40:07;;;;;;;18.95;4.85;;;;;;;22.20;97.68;98097.97;5032750;28;20093;-59
2022/10/10 10:43:05;;;;;;;31.75;5.60;;;;;;;20.46;100.00;98100.00;5035841;28;20384;-59
2022/10/10 10:45:51;;;;;;;19.75;5.13;;;;;;;20.91;100.00;98099.91;5033426;28;20671;-56
2022/10/10 10:48:33;;;;;;;23.02;5.18;;;;;;;20.26;100.00;98079.56;5032537;28;20025;-56
2022/10/10 10:51:28;;;;;;;26.40;5.20;;;;;;;20.07;100.00;98088.94;5032248;28;20052;-57
2022/10/10 10:54:05;;;;;;;23.13;5.05;;;;;;;19.96;100.00;98091.56;5022703;28;20577;-57
2022/10/10 10:56:55;;;;;;;26.20;6.00;;;;;;;20.08;100.00;98087.13;5031405;28;20378;-57
2022/10/10 10:59:35;;;;;;;22.70;5.35;;;;;;;20.51;100.00;98102.25;5032374;28;20021;-57
2022/10/10 11:02:13;;;;;;;17.50;4.95;;;;;;;19.53;100.00;98098.34;5028963;28;20102;-57
2022/10/10 11:04:59;;;;;;;25.77;6.10;;;;;;;19.91;100.00;98091.09;5033666;28;20025;-57
2022/10/10 11:07:30;;;;;;;27.85;5.95;;;;;;;20.84;100.00;98087.28;5031442;28;20033;-57
2022/10/10 11:10:01;;;;;;;23.42;5.40;;;;;;;19.58;100.00;98092.72;5028997;28;20032;-60
2022/10/10 11:13:02;;;;;;;21.87;5.70;;;;;;;19.28;100.00;98083.50;5031369;28;20041;-57
2022/10/10 11:15:47;;;;;;;32.85;5.30;;;;;;;21.01;100.00;98083.22;5031008;28;20421;-57
2022/10/10 11:18:18;;;;;;;25.52;5.65;;;;;;;20.41;100.00;98084.44;5033954;28;20021;-59
2022/10/10 11:20:50;;;;;;;26.47;5.70;;;;;;;20.91;100.00;98084.00;5031914;28;20029;-57
2022/10/10 11:23:28;;;;;;;23.85;5.50;;;;;;;18.86;100.00;98081.28;5031300;28;20029;-57
2022/10/10 11:26:21;;;;;;;25.02;5.40;;;;;;;19.58;100.00;98077.69;5031853;28;20033;-58
2022/10/10 11:29:18;;;;;;;32.15;6.13;;;;;;;19.90;100.00;98071.72;5030639;28;20028;-58
2022/10/10 11:31:55;;;;;;;24.33;5.45;;;;;;;20.08;100.00;98072.09;5017926;28;20042;-58